createdAt,value
2023-11-14T00:00:59.478Z,11.85
2023-11-14T00:01:59.612Z,11.85
2023-11-14T00:02:59.526Z,11.82
2023-11-14T00:03:59.547Z,11.80
2023-11-14T00:04:59.501Z,11.76
2023-11-14T00:05:59.424Z,11.75
2023-11-14T00:06:59.420Z,11.75
2023-11-14T00:07:59.475Z,11.69
2023-11-14T00:08:59.624Z,11.72
2023-11-14T00:09:59.375Z,11.76
2023-11-14T00:10:59.417Z,11.85
2023-11-14T00:11:59.369Z,11.88
2023-11-14T00:12:59.369Z,11.88
2023-11-14T00:13:59.392Z,11.82
2023-11-14T00:14:59.335Z,11.76
2023-11-14T00:15:59.346Z,11.73
2023-11-14T00:16:59.561Z,11.75
2023-11-14T00:17:59.361Z,11.79
2023-11-14T00:18:59.689Z,11.75
2023-11-14T00:19:59.311Z,11.76
2023-11-14T00:20:59.433Z,11.75
2023-11-14T00:21:59.244Z,11.73
2023-11-14T00:22:59.295Z,11.83
2023-11-14T00:23:59.225Z,11.82
2023-11-14T00:24:59.300Z,11.76
2023-11-14T00:25:59.240Z,11.75
2023-11-14T00:26:59.384Z,11.78
2023-11-14T00:27:59.196Z,11.78
2023-11-14T00:28:59.273Z,11.75
2023-11-14T00:29:59.174Z,11.78
2023-11-14T00:30:59.154Z,11.82
2023-11-14T00:31:59.258Z,11.79
2023-11-14T00:32:59.225Z,11.78
2023-11-14T00:33:59.114Z,11.95
2023-11-14T00:34:59.152Z,11.88
2023-11-14T00:35:59.102Z,11.83
2023-11-14T00:36:59.089Z,11.78
2023-11-14T00:37:59.120Z,11.69
2023-11-14T00:38:59.059Z,11.69
2023-11-14T00:39:59.047Z,11.73
2023-11-14T00:40:59.081Z,11.73
2023-11-14T00:41:59.045Z,11.78
2023-11-14T00:42:59.022Z,11.78
2023-11-14T00:43:59.076Z,11.75
2023-11-14T00:44:59.004Z,11.78
2023-11-14T00:45:59.018Z,11.75
2023-11-14T00:46:59.126Z,11.76
2023-11-14T00:47:59.033Z,11.76
2023-11-14T00:48:58.941Z,11.70
2023-11-14T00:49:58.973Z,11.64
2023-11-14T00:50:59.071Z,11.61
2023-11-14T00:51:58.981Z,11.64
2023-11-14T00:52:58.937Z,11.58
2023-11-14T00:53:58.895Z,11.60
2023-11-14T00:54:58.920Z,11.58
2023-11-14T00:55:58.926Z,11.60
2023-11-14T00:56:58.857Z,11.60
2023-11-14T00:57:58.842Z,11.62
2023-11-14T00:58:58.864Z,11.60
2023-11-14T00:59:58.845Z,11.58
2023-11-14T01:00:58.880Z,11.60
2023-11-14T01:01:58.884Z,11.61
2023-11-14T01:02:58.874Z,11.64
2023-11-14T01:03:58.816Z,11.60
2023-11-14T01:04:58.828Z,11.51
2023-11-14T01:05:58.818Z,11.49
2023-11-14T01:06:58.737Z,11.46
2023-11-14T01:07:58.826Z,11.47
2023-11-14T01:08:58.735Z,11.52
2023-11-14T01:09:58.729Z,11.54
2023-11-14T01:10:58.764Z,11.49
2023-11-14T01:11:58.689Z,11.44
2023-11-14T01:12:58.678Z,11.42
2023-11-14T01:13:58.698Z,11.40
2023-11-14T01:14:58.661Z,11.37
2023-11-14T01:15:58.665Z,11.37
2023-11-14T01:16:58.683Z,11.40
2023-11-14T01:17:58.707Z,11.43
2023-11-14T01:18:58.772Z,11.46
2023-11-14T01:19:58.632Z,11.44
2023-11-14T01:20:58.592Z,11.47
2023-11-14T01:21:58.589Z,11.55
2023-11-14T01:22:58.640Z,11.52
2023-11-14T01:23:58.567Z,11.49
2023-11-14T01:24:58.544Z,11.47
2023-11-14T01:25:58.595Z,11.44
2023-11-14T01:26:58.525Z,11.44
2023-11-14T01:27:58.526Z,11.44
2023-11-14T01:28:58.537Z,11.49
2023-11-14T01:29:58.481Z,11.46
2023-11-14T01:30:58.469Z,11.47
2023-11-14T01:31:58.523Z,11.44
2023-11-14T01:32:58.484Z,11.52
2023-11-14T01:33:58.477Z,11.54
2023-11-14T01:34:58.452Z,11.52
2023-11-14T01:35:58.410Z,11.49
2023-11-14T01:36:58.414Z,11.49
2023-11-14T01:37:58.453Z,11.49
2023-11-14T01:38:58.384Z,11.47
2023-11-14T01:39:58.365Z,11.54
2023-11-14T01:40:58.368Z,11.58
2023-11-14T01:41:58.362Z,11.57
2023-11-14T01:42:58.330Z,11.60
2023-11-14T01:43:58.380Z,11.72
2023-11-14T01:44:58.310Z,11.69
2023-11-14T01:45:58.306Z,11.67
2023-11-14T01:46:58.473Z,11.69
2023-11-14T01:47:58.422Z,11.62
2023-11-14T01:48:58.284Z,11.58
2023-11-14T01:49:58.271Z,11.55
2023-11-14T01:50:58.555Z,11.54
2023-11-14T01:51:58.256Z,11.52
2023-11-14T01:52:58.301Z,11.62
2023-11-14T01:53:58.234Z,11.69
2023-11-14T01:54:58.191Z,11.64
2023-11-14T01:55:58.289Z,11.60
2023-11-14T01:56:58.175Z,11.55
2023-11-14T01:57:58.166Z,11.60
2023-11-14T01:58:58.238Z,11.61
2023-11-14T01:59:58.161Z,11.57
2023-11-14T02:00:58.174Z,11.55
2023-11-14T02:01:58.178Z,11.54
2023-11-14T02:02:58.180Z,11.54
2023-11-14T02:03:58.381Z,11.55
2023-11-14T02:04:58.140Z,11.57
2023-11-14T02:05:58.124Z,11.60
2023-11-14T02:06:58.057Z,11.60
2023-11-14T02:07:58.074Z,11.55
2023-11-14T02:08:58.146Z,11.52
2023-11-14T02:09:58.038Z,11.49
2023-11-14T02:10:58.063Z,11.51
2023-11-14T02:11:58.170Z,11.64
2023-11-14T02:12:57.993Z,11.61
2023-11-14T02:13:58.238Z,11.57
2023-11-14T02:14:57.985Z,11.58
2023-11-14T02:15:57.972Z,11.60
2023-11-14T02:16:58.009Z,11.58
2023-11-14T02:17:58.045Z,11.58
2023-11-14T02:18:57.949Z,11.55
2023-11-14T02:19:57.944Z,11.54
2023-11-14T02:20:57.908Z,11.54
2023-11-14T02:21:57.903Z,11.54
2023-11-14T02:22:57.959Z,11.52
2023-11-14T02:23:57.889Z,11.57
2023-11-14T02:24:57.859Z,11.55
2023-11-14T02:25:57.906Z,11.51
2023-11-14T02:27:01.098Z,11.46
2023-11-14T02:27:57.842Z,11.44
2023-11-14T02:28:57.881Z,11.46
2023-11-14T02:29:57.846Z,11.47
2023-11-14T02:30:57.813Z,11.54
2023-11-14T02:31:57.801Z,11.51
2023-11-14T02:32:57.805Z,11.49
2023-11-14T02:33:57.766Z,11.46
2023-11-14T02:34:57.776Z,11.43
2023-11-14T02:35:57.745Z,11.43
2023-11-14T02:36:57.741Z,11.43
2023-11-14T02:37:57.802Z,11.42
2023-11-14T02:38:57.714Z,11.51
2023-11-14T02:39:57.689Z,11.61
2023-11-14T02:40:57.815Z,11.60
2023-11-14T02:41:57.681Z,11.54
2023-11-14T02:42:57.674Z,11.54
2023-11-14T02:43:57.742Z,11.57
2023-11-14T02:44:57.648Z,11.55
2023-11-14T02:45:57.638Z,11.55
2023-11-14T02:46:57.739Z,11.54
2023-11-14T02:47:57.644Z,11.54
2023-11-14T02:48:57.596Z,11.54
2023-11-14T02:49:57.640Z,11.55
2023-11-14T02:50:57.607Z,11.55
2023-11-14T02:51:57.575Z,11.54
2023-11-14T02:52:57.597Z,11.52
2023-11-14T02:53:57.549Z,11.46
2023-11-14T02:54:57.539Z,11.43
2023-11-14T02:55:57.576Z,11.40
2023-11-14T02:56:57.511Z,11.42
2023-11-14T02:57:57.488Z,11.42
2023-11-14T02:58:57.525Z,11.40
2023-11-14T02:59:57.470Z,11.46
2023-11-14T03:00:57.485Z,11.44
2023-11-14T03:01:57.512Z,11.44
2023-11-14T03:02:57.512Z,11.40
2023-11-14T03:03:57.484Z,11.37
2023-11-14T03:04:57.497Z,11.35
2023-11-14T03:05:57.651Z,11.36
2023-11-14T03:06:57.442Z,11.36
2023-11-14T03:07:57.399Z,11.39
2023-11-14T03:08:57.373Z,11.42
2023-11-14T03:09:57.380Z,11.43
2023-11-14T03:10:57.396Z,11.42
2023-11-14T03:11:57.339Z,11.40
2023-11-14T03:12:57.325Z,11.37
2023-11-14T03:13:57.329Z,11.33
2023-11-14T03:14:57.322Z,11.35
2023-11-14T03:15:57.404Z,11.36
2023-11-14T03:16:57.306Z,11.42
2023-11-14T03:17:57.339Z,11.43
2023-11-14T03:18:57.273Z,11.42
2023-11-14T03:19:57.312Z,11.43
2023-11-14T03:20:57.235Z,11.46
2023-11-14T03:21:57.224Z,11.51
2023-11-14T03:22:57.233Z,11.52
2023-11-14T03:23:57.232Z,11.54
2023-11-14T03:24:57.227Z,11.57
2023-11-14T03:25:57.230Z,11.58
2023-11-14T03:26:57.168Z,11.57
2023-11-14T03:27:57.169Z,11.52
2023-11-14T03:28:57.185Z,11.49
2023-11-14T03:29:57.149Z,11.51
2023-11-14T03:30:57.144Z,11.49
2023-11-14T03:31:57.179Z,11.47
2023-11-14T03:32:57.222Z,11.44
2023-11-14T03:33:57.109Z,11.47
2023-11-14T03:34:57.105Z,11.46
2023-11-14T03:35:57.105Z,11.47
2023-11-14T03:36:57.055Z,11.43
2023-11-14T03:37:57.289Z,11.44
2023-11-14T03:38:57.041Z,11.47
2023-11-14T03:39:57.038Z,11.54
2023-11-14T03:40:57.112Z,11.57
2023-11-14T03:41:57.011Z,11.52
2023-11-14T03:42:57.009Z,11.54
2023-11-14T03:43:56.988Z,11.57
2023-11-14T03:44:56.972Z,11.58
2023-11-14T03:45:57.005Z,11.65
2023-11-14T03:46:56.987Z,11.62
2023-11-14T03:47:57.029Z,11.62
2023-11-14T03:48:56.924Z,11.62
2023-11-14T03:49:56.969Z,11.67
2023-11-14T03:50:56.915Z,11.69
2023-11-14T03:51:56.924Z,11.64
2023-11-14T03:52:56.930Z,11.65
2023-11-14T03:53:56.893Z,11.69
2023-11-14T03:54:56.880Z,11.76
2023-11-14T03:55:56.895Z,11.78
2023-11-14T03:56:56.867Z,11.76
2023-11-14T03:57:56.841Z,11.79
2023-11-14T03:58:56.839Z,11.78
2023-11-14T03:59:56.824Z,11.76
2023-11-14T04:00:56.823Z,11.76
2023-11-14T04:01:56.906Z,11.78
2023-11-14T04:02:56.939Z,11.76
2023-11-14T04:03:56.812Z,11.78
2023-11-14T04:04:56.903Z,11.79
2023-11-14T04:05:56.759Z,11.80
2023-11-14T04:06:56.737Z,11.85
2023-11-14T04:07:56.728Z,11.98
2023-11-14T04:08:56.703Z,12.04
2023-11-14T04:09:56.691Z,12.02
2023-11-14T04:10:56.754Z,12.01
2023-11-14T04:11:56.683Z,12.02
2023-11-14T04:12:56.667Z,11.99
2023-11-14T04:13:56.680Z,11.96
2023-11-14T04:14:56.646Z,11.98
2023-11-14T04:15:56.639Z,11.94
2023-11-14T04:16:56.649Z,11.91
2023-11-14T04:17:56.693Z,11.90
2023-11-14T04:18:56.600Z,11.88
2023-11-14T04:19:56.611Z,11.90
2023-11-14T04:20:56.582Z,11.96
2023-11-14T04:21:56.585Z,11.98
2023-11-14T04:22:56.567Z,11.96
2023-11-14T04:23:56.548Z,11.94
2023-11-14T04:24:56.524Z,11.94
2023-11-14T04:25:56.548Z,11.95
2023-11-14T04:26:56.508Z,11.98
2023-11-14T04:27:56.498Z,11.96
2023-11-14T04:28:56.641Z,11.99
2023-11-14T04:29:56.487Z,11.99
2023-11-14T04:30:56.478Z,12.02
2023-11-14T04:31:56.605Z,11.99
2023-11-14T04:32:56.622Z,11.98
2023-11-14T04:33:56.446Z,12.01
2023-11-14T04:34:56.473Z,12.04
2023-11-14T04:35:56.421Z,12.05
2023-11-14T04:36:56.418Z,12.07
2023-11-14T04:37:56.429Z,12.10
2023-11-14T04:38:56.592Z,12.09
2023-11-14T04:39:56.376Z,12.07
2023-11-14T04:40:56.405Z,12.10
2023-11-14T04:41:56.383Z,12.10
2023-11-14T04:42:56.359Z,12.12
2023-11-14T04:43:56.628Z,12.05
2023-11-14T04:44:56.584Z,12.10
2023-11-14T04:45:56.301Z,12.10
2023-11-14T04:46:56.397Z,12.09
2023-11-14T04:47:56.326Z,12.05
2023-11-14T04:48:56.294Z,12.12
2023-11-14T04:49:56.321Z,12.13
2023-11-14T04:51:31.996Z,12.09
2023-11-14T04:51:56.235Z,12.07
2023-11-14T04:52:56.268Z,12.01
2023-11-14T04:53:56.232Z,11.96
2023-11-14T04:54:56.195Z,12.01
2023-11-14T04:55:56.217Z,12.07
2023-11-14T04:56:56.178Z,12.04
2023-11-14T04:57:56.191Z,12.19
2023-11-14T04:58:56.180Z,12.21
2023-11-14T04:59:56.278Z,12.17
2023-11-14T05:00:56.221Z,12.14
2023-11-14T05:01:56.140Z,12.07
2023-11-14T05:02:56.361Z,12.01
2023-11-14T05:03:56.141Z,11.94
2023-11-14T05:04:56.092Z,11.90
2023-11-14T05:05:56.121Z,11.91
2023-11-14T05:06:56.066Z,11.90
2023-11-14T05:07:56.090Z,11.86
2023-11-14T05:08:56.064Z,11.82
2023-11-14T05:09:56.055Z,11.75
2023-11-14T05:10:56.176Z,11.73
2023-11-14T05:11:56.018Z,11.78
2023-11-14T05:12:56.014Z,11.78
2023-11-14T05:13:56.033Z,11.76
2023-11-14T05:14:55.995Z,11.79
2023-11-14T05:15:55.980Z,11.94
2023-11-14T05:16:56.026Z,11.91
2023-11-14T05:17:56.063Z,11.90
2023-11-14T05:18:56.068Z,11.85
2023-11-14T05:19:55.981Z,11.79
2023-11-14T05:20:56.079Z,11.75
2023-11-14T05:21:55.931Z,11.78
2023-11-14T05:22:56.083Z,11.82
2023-11-14T05:23:55.891Z,11.82
2023-11-14T05:24:55.894Z,11.85
2023-11-14T05:25:55.932Z,11.82
2023-11-14T05:26:55.874Z,11.80
2023-11-14T05:27:55.865Z,11.83
2023-11-14T05:28:55.861Z,11.80
2023-11-14T05:29:55.817Z,11.80
2023-11-14T05:30:55.813Z,11.82
2023-11-14T05:31:55.848Z,11.90
2023-11-14T05:32:55.872Z,11.96
2023-11-14T05:33:55.789Z,11.98
2023-11-14T05:34:55.800Z,11.98
2023-11-14T05:35:55.768Z,11.90
2023-11-14T05:36:55.741Z,11.82
2023-11-14T05:37:55.763Z,11.79
2023-11-14T05:38:55.719Z,11.80
2023-11-14T05:39:55.712Z,11.82
2023-11-14T05:40:55.769Z,11.85
2023-11-14T05:41:55.700Z,11.82
2023-11-14T05:42:55.680Z,11.91
2023-11-14T05:43:55.699Z,11.90
2023-11-14T05:44:55.674Z,11.86
2023-11-14T05:45:55.685Z,11.83
2023-11-14T05:46:55.667Z,11.79
2023-11-14T05:47:55.689Z,11.75
2023-11-14T05:48:55.679Z,11.79
2023-11-14T05:49:55.698Z,11.79
2023-11-14T05:50:55.629Z,11.76
2023-11-14T05:51:55.587Z,11.70
2023-11-14T05:52:55.627Z,11.73
2023-11-14T05:53:55.565Z,11.72
2023-11-14T05:54:55.556Z,11.70
2023-11-14T05:55:55.594Z,11.69
2023-11-14T05:56:55.528Z,11.72
2023-11-14T05:57:55.896Z,11.72
2023-11-14T05:58:55.530Z,11.70
2023-11-14T05:59:55.532Z,11.67
2023-11-14T06:00:55.493Z,11.70
2023-11-14T06:01:55.503Z,11.75
2023-11-14T06:02:55.526Z,11.73
2023-11-14T06:03:55.508Z,11.78
2023-11-14T06:04:55.690Z,11.78
2023-11-14T06:05:55.594Z,11.82
2023-11-14T06:06:55.413Z,11.83
2023-11-14T06:07:55.421Z,11.83
2023-11-14T06:08:55.411Z,11.82
2023-11-14T06:09:55.386Z,11.83
2023-11-14T06:10:55.399Z,11.85
2023-11-14T06:11:55.358Z,11.85
2023-11-14T06:12:55.397Z,11.90
2023-11-14T06:13:55.377Z,11.95
2023-11-14T06:14:55.327Z,11.94
2023-11-14T06:15:55.341Z,11.95
2023-11-14T06:16:55.487Z,11.98
2023-11-14T06:17:55.578Z,12.01
2023-11-14T06:18:55.301Z,12.01
2023-11-14T06:19:55.288Z,12.09
2023-11-14T06:20:55.260Z,12.12
2023-11-14T06:21:55.245Z,12.12
2023-11-14T06:22:56.377Z,12.10
2023-11-14T06:23:55.222Z,12.09
2023-11-14T06:24:55.220Z,12.05
2023-11-14T06:25:55.228Z,12.12
2023-11-14T06:26:55.198Z,12.19
2023-11-14T06:27:55.188Z,12.20
2023-11-14T06:28:55.191Z,12.19
2023-11-14T06:29:55.172Z,12.13
2023-11-14T06:30:55.157Z,12.09
2023-11-14T06:31:55.179Z,12.12
2023-11-14T06:32:55.199Z,12.17
2023-11-14T06:33:55.182Z,12.21
2023-11-14T06:34:55.146Z,12.17
2023-11-14T06:35:55.090Z,12.13
2023-11-14T06:36:55.094Z,12.13
2023-11-14T06:37:55.085Z,12.10
2023-11-14T06:38:55.075Z,12.10
2023-11-14T06:39:55.292Z,12.10
2023-11-14T06:40:55.083Z,12.09
2023-11-14T06:41:55.050Z,12.10
2023-11-14T06:42:55.016Z,12.04
2023-11-14T06:43:55.047Z,11.99
2023-11-14T06:44:55.061Z,12.01
2023-11-14T06:45:55.086Z,12.09
2023-11-14T06:46:55.130Z,12.07
2023-11-14T06:47:55.030Z,12.12
2023-11-14T06:48:54.957Z,12.07
2023-11-14T06:49:55.061Z,12.07
2023-11-14T06:50:55.017Z,12.05
2023-11-14T06:51:54.913Z,12.02
2023-11-14T06:52:54.959Z,12.01
2023-11-14T06:53:54.885Z,12.04
2023-11-14T06:54:54.951Z,12.05
2023-11-14T06:55:54.952Z,12.07
2023-11-14T06:56:54.878Z,12.04
2023-11-14T06:57:54.914Z,11.99
2023-11-14T06:58:54.906Z,12.05
2023-11-14T06:59:54.918Z,12.07
2023-11-14T07:00:54.834Z,12.12
2023-11-14T07:01:54.879Z,12.07
2023-11-14T07:02:54.924Z,12.14
2023-11-14T07:03:54.850Z,12.16
2023-11-14T07:04:54.986Z,12.13
2023-11-14T07:05:54.776Z,12.10
2023-11-14T07:06:54.788Z,12.10
2023-11-14T07:07:54.864Z,12.12
2023-11-14T07:08:54.732Z,12.23
2023-11-14T07:09:54.754Z,12.35
2023-11-14T07:10:54.771Z,12.31
2023-11-14T07:11:54.709Z,12.21
2023-11-14T07:12:54.717Z,12.19
2023-11-14T07:13:54.765Z,12.13
2023-11-14T07:14:55.439Z,12.10
2023-11-14T07:15:54.679Z,12.07
2023-11-14T07:16:54.831Z,12.09
2023-11-14T07:17:54.801Z,12.07
2023-11-14T07:18:54.648Z,12.07
2023-11-14T07:19:54.737Z,12.12
2023-11-14T07:20:54.717Z,12.12
2023-11-14T07:21:54.656Z,12.10
2023-11-14T07:22:54.602Z,12.12
2023-11-14T07:23:54.577Z,12.16
2023-11-14T07:24:54.549Z,12.17
2023-11-14T07:25:54.581Z,12.17
2023-11-14T07:26:54.548Z,12.24
2023-11-14T07:27:54.544Z,12.37
2023-11-14T07:28:54.568Z,12.35
2023-11-14T07:29:54.499Z,12.39
2023-11-14T07:30:54.576Z,12.39
2023-11-14T07:31:54.551Z,12.45
2023-11-14T07:32:54.532Z,12.41
2023-11-14T07:33:54.465Z,12.35
2023-11-14T07:34:54.468Z,12.31
2023-11-14T07:35:54.439Z,12.32
2023-11-14T07:36:54.443Z,12.34
2023-11-14T07:37:54.474Z,12.32
2023-11-14T07:38:54.412Z,12.34
2023-11-14T07:39:57.512Z,12.32
2023-11-14T07:40:54.424Z,12.35
2023-11-14T07:41:54.378Z,12.39
2023-11-14T07:42:54.401Z,12.39
2023-11-14T07:43:54.414Z,12.37
2023-11-14T07:44:54.340Z,12.37
2023-11-14T07:45:54.355Z,12.38
2023-11-14T07:47:01.951Z,12.34
2023-11-14T07:47:55.332Z,12.37
2023-11-14T07:48:54.316Z,12.41
2023-11-14T07:49:54.298Z,12.47
2023-11-14T07:50:57.308Z,12.47
2023-11-14T07:51:54.271Z,12.45
2023-11-14T07:52:54.305Z,12.39
2023-11-14T07:53:54.248Z,12.39
2023-11-14T07:54:54.238Z,12.38
2023-11-14T07:55:54.269Z,12.39
2023-11-14T07:56:54.239Z,12.39
2023-11-14T07:57:54.194Z,12.37
2023-11-14T07:58:54.235Z,12.41
2023-11-14T07:59:54.167Z,12.50
2023-11-14T08:00:54.176Z,12.52
2023-11-14T08:01:54.185Z,12.46
2023-11-14T08:02:54.326Z,12.45
2023-11-14T08:03:54.217Z,12.45
2023-11-14T08:04:54.179Z,12.45
2023-11-14T08:05:54.117Z,12.47
2023-11-14T08:06:54.108Z,12.42
2023-11-14T08:07:54.093Z,12.37
2023-11-14T08:08:54.086Z,12.32
2023-11-14T08:09:54.064Z,12.32
2023-11-14T08:10:54.099Z,12.32
2023-11-14T08:11:54.036Z,12.35
2023-11-14T08:12:54.035Z,12.38
2023-11-14T08:13:54.112Z,12.42
2023-11-14T08:14:54.189Z,12.42
2023-11-14T08:15:54.000Z,12.41
2023-11-14T08:16:54.070Z,12.39
2023-11-14T08:17:54.062Z,12.38
2023-11-14T08:18:54.010Z,12.32
2023-11-14T08:19:53.967Z,12.31
2023-11-14T08:20:53.938Z,12.37
2023-11-14T08:21:53.954Z,12.37
2023-11-14T08:22:54.001Z,12.38
2023-11-14T08:23:53.945Z,12.38
2023-11-14T08:24:53.900Z,12.39
2023-11-14T08:25:53.896Z,12.49
2023-11-14T08:26:53.882Z,12.54
2023-11-14T08:27:53.894Z,12.59
2023-11-14T08:28:54.203Z,12.59
2023-11-14T08:29:53.868Z,12.62
2023-11-14T08:30:53.861Z,12.62
2023-11-14T08:31:53.838Z,12.65
2023-11-14T08:32:53.851Z,12.62
2023-11-14T08:33:53.822Z,12.68
2023-11-14T08:34:53.903Z,12.68
2023-11-14T08:35:53.777Z,12.67
2023-11-14T08:36:53.768Z,12.62
2023-11-14T08:37:53.885Z,12.65
2023-11-14T08:38:53.765Z,12.62
2023-11-14T08:39:53.725Z,12.62
2023-11-14T08:40:53.745Z,12.65
2023-11-14T08:41:53.749Z,12.68
2023-11-14T08:42:54.352Z,12.68
2023-11-14T08:43:53.724Z,12.70
2023-11-14T08:44:54.624Z,12.71
2023-11-14T08:45:53.700Z,12.77
2023-11-14T08:46:53.681Z,12.79
2023-11-14T08:47:53.706Z,12.83
2023-11-14T08:48:53.648Z,12.89
2023-11-14T08:49:53.644Z,12.90
2023-11-14T08:50:55.105Z,12.95
2023-11-14T08:51:53.677Z,12.97
2023-11-14T08:52:53.739Z,12.97
2023-11-14T08:53:53.570Z,12.96
2023-11-14T08:54:53.564Z,12.97
2023-11-14T08:55:53.677Z,13.00
2023-11-14T08:56:53.567Z,13.01
2023-11-14T08:57:53.523Z,13.00
2023-11-14T08:58:53.525Z,13.03
2023-11-14T08:59:53.503Z,13.05
2023-11-14T09:00:53.494Z,13.07
2023-11-14T09:01:53.602Z,13.07
2023-11-14T09:02:53.476Z,13.05
2023-11-14T09:03:53.499Z,13.08
2023-11-14T09:04:53.471Z,13.08
2023-11-14T09:05:53.444Z,13.08
2023-11-14T09:06:53.444Z,13.14
2023-11-14T09:07:53.442Z,13.14
2023-11-14T09:08:53.407Z,13.17
2023-11-14T09:09:53.385Z,13.19
2023-11-14T09:10:53.426Z,13.17
2023-11-14T09:11:53.410Z,13.15
2023-11-14T09:12:53.382Z,13.14
2023-11-14T09:13:53.367Z,13.20
2023-11-14T09:14:53.359Z,13.22
2023-11-14T09:15:53.356Z,13.23
2023-11-14T09:16:53.386Z,13.23
2023-11-14T09:17:56.504Z,13.22
2023-11-14T09:18:53.404Z,13.22
2023-11-14T09:19:53.304Z,13.22
2023-11-14T09:20:53.302Z,13.22
2023-11-14T09:21:53.255Z,13.20
2023-11-14T09:22:55.105Z,13.19
2023-11-14T09:23:53.237Z,13.23
2023-11-14T09:24:53.246Z,13.25
2023-11-14T09:25:53.264Z,13.25
2023-11-14T09:26:53.214Z,13.25
2023-11-14T09:27:53.227Z,13.25
2023-11-14T09:28:53.273Z,13.25
2023-11-14T09:29:53.760Z,13.23
2023-11-14T09:30:53.161Z,13.25
2023-11-14T09:31:53.155Z,13.26
2023-11-14T09:32:53.232Z,13.28
2023-11-14T09:33:53.141Z,13.29
2023-11-14T09:34:53.172Z,13.29
2023-11-14T09:35:53.126Z,13.30
2023-11-14T09:36:53.117Z,13.32
2023-11-14T09:37:53.085Z,13.38
2023-11-14T09:38:53.093Z,13.36
2023-11-14T09:39:53.056Z,13.38
2023-11-14T09:40:53.093Z,13.39
2023-11-14T09:41:53.133Z,13.33
2023-11-14T09:42:53.052Z,13.33
2023-11-14T09:43:53.088Z,13.33
2023-11-14T09:44:53.212Z,13.30
2023-11-14T09:45:53.133Z,13.33
2023-11-14T09:46:53.020Z,13.33
2023-11-14T09:47:53.045Z,13.33
2023-11-14T09:48:52.990Z,13.33
2023-11-14T09:49:52.982Z,13.33
2023-11-14T09:50:52.960Z,13.32
2023-11-14T09:51:52.933Z,13.32
2023-11-14T09:52:52.991Z,13.33
2023-11-14T09:53:52.918Z,13.38
2023-11-14T09:54:53.141Z,13.38
2023-11-14T09:55:52.924Z,13.39
2023-11-14T09:56:52.901Z,13.42
2023-11-14T09:57:52.884Z,13.42
2023-11-14T09:58:52.878Z,13.42
2023-11-14T09:59:52.860Z,13.42
2023-11-14T10:00:52.893Z,13.42
2023-11-14T10:01:52.914Z,13.42
2023-11-14T10:02:52.957Z,13.42
2023-11-14T10:03:52.845Z,13.41
2023-11-14T10:04:56.581Z,13.42
2023-11-14T10:05:53.852Z,13.42
2023-11-14T10:06:52.864Z,13.42
2023-11-14T10:07:52.808Z,13.45
2023-11-14T10:08:58.767Z,13.41
2023-11-14T10:09:53.754Z,13.41
2023-11-14T10:10:52.763Z,13.44
2023-11-14T10:12:12.633Z,13.45
2023-11-14T10:12:53.708Z,13.44
2023-11-14T10:13:52.740Z,13.45
2023-11-14T10:14:52.728Z,13.45
2023-11-14T10:15:52.707Z,13.45
2023-11-14T10:16:52.737Z,13.49
2023-11-14T10:17:52.738Z,13.51
2023-11-14T10:18:52.661Z,13.48
2023-11-14T10:19:54.670Z,13.46
2023-11-14T10:20:52.673Z,13.45
2023-11-14T10:21:52.612Z,13.44
2023-11-14T10:22:52.658Z,13.45
2023-11-14T10:23:52.643Z,13.44
2023-11-14T10:24:52.658Z,13.46
2023-11-14T10:25:52.595Z,13.48
2023-11-14T10:26:52.610Z,13.48
2023-11-14T10:27:52.552Z,13.48
2023-11-14T10:28:53.370Z,13.49
2023-11-14T10:29:52.652Z,13.49
2023-11-14T10:30:53.936Z,13.49
2023-11-14T10:31:53.786Z,13.49
2023-11-14T10:32:52.611Z,13.55
2023-11-14T10:33:52.547Z,13.55
2023-11-14T10:34:52.514Z,13.59
2023-11-14T10:35:52.458Z,13.62
2023-11-14T10:36:52.459Z,13.60
2023-11-14T10:37:52.513Z,13.62
2023-11-14T10:38:52.438Z,13.62
2023-11-14T10:39:52.421Z,13.63
2023-11-14T10:40:52.430Z,13.63
2023-11-14T10:41:52.390Z,13.63
2023-11-14T10:42:52.386Z,13.64
2023-11-14T10:43:52.399Z,13.64
2023-11-14T10:44:52.356Z,13.62
2023-11-14T10:45:52.431Z,13.62
2023-11-14T10:46:52.530Z,13.59
2023-11-14T10:47:52.335Z,13.57
2023-11-14T10:48:52.373Z,13.57
2023-11-14T10:49:52.321Z,13.52
2023-11-14T10:50:52.291Z,13.48
2023-11-14T10:51:52.271Z,13.42
2023-11-14T10:52:52.355Z,13.33
2023-11-14T10:53:52.325Z,13.26
2023-11-14T10:54:52.246Z,13.19
2023-11-14T10:55:53.836Z,13.14
2023-11-14T10:56:57.610Z,13.05
2023-11-14T10:57:53.232Z,13.00
2023-11-14T10:58:52.226Z,12.93
2023-11-14T10:59:52.190Z,12.86
2023-11-14T11:00:52.228Z,12.79
2023-11-14T11:01:52.195Z,12.74
2023-11-14T11:02:52.428Z,12.72
2023-11-14T11:03:52.177Z,12.68
2023-11-14T11:04:52.194Z,12.64
2023-11-14T11:05:52.165Z,12.60
2023-11-14T11:06:52.201Z,12.59
2023-11-14T11:07:52.137Z,12.54
2023-11-14T11:08:52.099Z,12.47
2023-11-14T11:09:52.072Z,12.47
2023-11-14T11:10:52.141Z,12.47
2023-11-14T11:11:52.078Z,12.39
2023-11-14T11:12:52.051Z,12.38
2023-11-14T11:13:52.058Z,12.38
2023-11-14T11:14:52.023Z,12.31
2023-11-14T11:15:52.022Z,12.37
2023-11-14T11:16:52.075Z,12.34
2023-11-14T11:17:52.057Z,12.29
2023-11-14T11:18:51.978Z,12.31
2023-11-14T11:19:52.003Z,12.34
2023-11-14T11:20:51.997Z,12.32
2023-11-14T11:21:51.957Z,12.29
2023-11-14T11:22:51.965Z,12.29
2023-11-14T11:23:51.925Z,12.29
2023-11-14T11:24:51.929Z,12.32
2023-11-14T11:25:51.955Z,12.35
2023-11-14T11:26:51.904Z,12.39
2023-11-14T11:27:51.876Z,12.41
2023-11-14T11:28:51.952Z,12.41
2023-11-14T11:29:51.872Z,12.42
2023-11-14T11:30:51.887Z,12.38
2023-11-14T11:31:51.889Z,12.37
2023-11-14T11:32:51.904Z,12.34
2023-11-14T11:33:51.811Z,12.32
2023-11-14T11:34:51.853Z,12.35
2023-11-14T11:35:51.804Z,12.38
2023-11-14T11:36:51.796Z,12.32
2023-11-14T11:37:51.814Z,12.31
2023-11-14T11:38:51.763Z,12.24
2023-11-14T11:39:51.749Z,12.21
2023-11-14T11:40:51.767Z,12.20
2023-11-14T11:41:51.730Z,12.20
2023-11-14T11:42:51.732Z,12.20
2023-11-14T11:43:52.329Z,12.21
2023-11-14T11:44:51.872Z,12.21
2023-11-14T11:45:51.695Z,12.21
2023-11-14T11:46:51.755Z,12.21
2023-11-14T11:47:51.740Z,12.20
2023-11-14T11:48:51.661Z,12.21
2023-11-14T11:49:51.656Z,12.20
2023-11-14T11:50:51.640Z,12.21
2023-11-14T11:51:51.602Z,12.21
2023-11-14T11:52:51.634Z,12.23
2023-11-14T11:53:51.594Z,12.27
2023-11-14T11:54:51.593Z,12.29
2023-11-14T11:55:51.607Z,12.34
2023-11-14T11:56:51.555Z,12.35
2023-11-14T11:57:51.634Z,12.38
2023-11-14T11:58:51.573Z,12.41
2023-11-14T11:59:51.525Z,12.38
2023-11-14T12:00:51.519Z,12.37
2023-11-14T12:01:51.521Z,12.37
2023-11-14T12:02:51.584Z,12.38
2023-11-14T12:03:51.558Z,12.38
2023-11-14T12:04:51.671Z,12.39
2023-11-14T12:05:51.550Z,12.41
2023-11-14T12:06:51.461Z,12.42
2023-11-14T12:07:51.529Z,12.42
2023-11-14T12:08:51.422Z,12.42
2023-11-14T12:09:51.419Z,12.45
2023-11-14T12:10:51.735Z,12.46
2023-11-14T12:11:51.414Z,12.49
2023-11-14T12:12:51.393Z,12.50
2023-11-14T12:13:51.422Z,12.47
2023-11-14T12:14:51.362Z,12.45
2023-11-14T12:15:51.388Z,12.45
2023-11-14T12:16:51.804Z,12.45
2023-11-14T12:17:51.346Z,12.47
2023-11-14T12:18:51.318Z,12.45
2023-11-14T12:19:51.329Z,12.47
2023-11-14T12:20:51.495Z,12.50
2023-11-14T12:21:51.306Z,12.52
2023-11-14T12:22:51.304Z,12.56
2023-11-14T12:23:51.278Z,12.62
2023-11-14T12:24:51.250Z,12.64
2023-11-14T12:25:51.307Z,12.65
2023-11-14T12:26:51.637Z,12.68
2023-11-14T12:27:51.244Z,12.72
2023-11-14T12:28:51.240Z,12.68
2023-11-14T12:29:51.854Z,12.70
2023-11-14T12:30:51.196Z,12.70
2023-11-14T12:31:51.290Z,12.72
2023-11-14T12:32:51.205Z,12.71
2023-11-14T12:33:51.161Z,12.77
2023-11-14T12:34:51.166Z,12.89
2023-11-14T12:35:51.199Z,13.00
2023-11-14T12:36:51.117Z,13.12
2023-11-14T12:37:51.137Z,13.22
2023-11-14T12:38:51.096Z,13.33
2023-11-14T12:39:51.087Z,13.38
2023-11-14T12:40:51.102Z,13.44
2023-11-14T12:41:51.112Z,13.48
2023-11-14T12:42:51.091Z,13.52
2023-11-14T12:43:59.129Z,13.52
2023-11-14T12:44:52.049Z,13.57
2023-11-14T12:45:51.043Z,13.63
2023-11-14T12:46:51.043Z,13.73
2023-11-14T12:47:51.021Z,13.78
2023-11-14T12:48:50.984Z,13.81
2023-11-14T12:49:51.068Z,13.79
2023-11-14T12:50:50.991Z,13.79
2023-11-14T12:51:51.000Z,13.77
2023-11-14T12:52:50.997Z,13.73